sensor_id;sensor_type;location;lat;lon;timestamp;temperature;humidity
14521;DHT22;7347;50.844;4.490;2023-04-05T06:49:53;13.30;99.90
14521;DHT22;7347;50.844;4.490;2023-04-05T06:52:20;13.60;99.80
14521;DHT22;7347;50.844;4.490;2023-04-05T06:54:46;14.20;99.30
14521;DHT22;7347;50.844;4.490;2023-04-05T06:57:13;14.60;98.80
14521;DHT22;7347;50.844;4.490;2023-04-05T06:59:40;15.00;98.20
14521;DHT22;7347;50.844;4.490;2023-04-05T07:02:07;15.50;97.70
14521;DHT22;7347;50.844;4.490;2023-04-05T07:04:33;15.60;97.60
14521;DHT22;7347;50.844;4.490;2023-04-05T07:07:03;16.00;97.40
14521;DHT22;7347;50.844;4.490;2023-04-05T07:09:31;16.60;96.70
14521;DHT22;7347;50.844;4.490;2023-04-05T07:11:58;17.00;96.40
14521;DHT22;7347;50.844;4.490;2023-04-05T07:14:25;17.30;95.60
14521;DHT22;7347;50.844;4.490;2023-04-05T07:16:52;17.40;95.70
14521;DHT22;7347;50.844;4.490;2023-04-05T07:19:19;18.00;94.80
14521;DHT22;7347;50.844;4.490;2023-04-05T07:21:46;18.60;93.60
14521;DHT22;7347;50.844;4.490;2023-04-05T07:24:14;17.70;95.00
14521;DHT22;7347;50.844;4.490;2023-04-05T07:26:41;18.40;93.80
14521;DHT22;7347;50.844;4.490;2023-04-05T07:29:08;18.90;92.00
14521;DHT22;7347;50.844;4.490;2023-04-05T07:31:36;19.50;91.70
14521;DHT22;7347;50.844;4.490;2023-04-05T07:34:03;19.40;90.80
14521;DHT22;7347;50.844;4.490;2023-04-05T07:36:30;19.70;90.30
14521;DHT22;7347;50.844;4.490;2023-04-05T07:38:57;19.20;89.10
14521;DHT22;7347;50.844;4.490;2023-04-05T07:41:27;19.10;88.20
14521;DHT22;7347;50.844;4.490;2023-04-05T07:43:56;19.20;86.80
14521;DHT22;7347;50.844;4.490;2023-04-05T07:46:23;19.70;88.00
14521;DHT22;7347;50.844;4.490;2023-04-05T07:48:51;20.20;88.70
14521;DHT22;7347;50.844;4.490;2023-04-05T07:51:18;20.40;83.90
14521;DHT22;7347;50.844;4.490;2023-04-05T07:53:45;20.40;82.30
14521;DHT22;7347;50.844;4.490;2023-04-05T07:56:13;20.10;83.20
14521;DHT22;7347;50.844;4.490;2023-04-05T07:58:41;20.10;82.40
14521;DHT22;7347;50.844;4.490;2023-04-05T08:01:09;20.10;83.70
14521;DHT22;7347;50.844;4.490;2023-04-05T08:03:37;19.70;83.70
14521;DHT22;7347;50.844;4.490;2023-04-05T08:06:11;19.70;83.30
14521;DHT22;7347;50.844;4.490;2023-04-05T08:08:39;20.30;82.80
14521;DHT22;7347;50.844;4.490;2023-04-05T08:11:05;20.10;82.10
14521;DHT22;7347;50.844;4.490;2023-04-05T08:13:32;20.40;82.70
14521;DHT22;7347;50.844;4.490;2023-04-05T08:16:02;20.40;81.10
14521;DHT22;7347;50.844;4.490;2023-04-05T08:18:29;20.10;81.00
14521;DHT22;7347;50.844;4.490;2023-04-05T08:20:56;20.40;80.70
14521;DHT22;7347;50.844;4.490;2023-04-05T08:23:23;20.30;79.10
14521;DHT22;7347;50.844;4.490;2023-04-05T08:25:50;20.00;78.10
14521;DHT22;7347;50.844;4.490;2023-04-05T08:28:17;20.30;76.80
14521;DHT22;7347;50.844;4.490;2023-04-05T08:30:44;20.20;77.70
14521;DHT22;7347;50.844;4.490;2023-04-05T08:33:13;19.70;77.80
14521;DHT22;7347;50.844;4.490;2023-04-05T08:35:39;18.60;79.60
14521;DHT22;7347;50.844;4.490;2023-04-05T08:38:07;18.40;81.00
14521;DHT22;7347;50.844;4.490;2023-04-05T08:40:39;17.90;80.00
14521;DHT22;7347;50.844;4.490;2023-04-05T08:43:10;18.00;81.20
14521;DHT22;7347;50.844;4.490;2023-04-05T08:45:45;18.50;78.00
14521;DHT22;7347;50.844;4.490;2023-04-05T08:48:14;18.00;75.70
14521;DHT22;7347;50.844;4.490;2023-04-05T08:50:41;17.70;76.80
14521;DHT22;7347;50.844;4.490;2023-04-05T08:53:08;17.60;80.50
14521;DHT22;7347;50.844;4.490;2023-04-05T08:55:36;17.30;76.80
14521;DHT22;7347;50.844;4.490;2023-04-05T08:58:06;16.80;77.40
14521;DHT22;7347;50.844;4.490;2023-04-05T09:00:33;17.00;80.90
14521;DHT22;7347;50.844;4.490;2023-04-05T09:03:00;17.10;79.00
14521;DHT22;7347;50.844;4.490;2023-04-05T09:05:30;17.70;80.10
14521;DHT22;7347;50.844;4.490;2023-04-05T09:07:57;17.50;78.60
14521;DHT22;7347;50.844;4.490;2023-04-05T09:10:26;17.20;78.50
14521;DHT22;7347;50.844;4.490;2023-04-05T09:12:53;17.30;79.30
14521;DHT22;7347;50.844;4.490;2023-04-05T09:15:21;17.70;78.40
14521;DHT22;7347;50.844;4.490;2023-04-05T09:17:49;17.10;78.10
14521;DHT22;7347;50.844;4.490;2023-04-05T09:20:16;15.00;80.90
14521;DHT22;7347;50.844;4.490;2023-04-05T09:22:45;14.20;81.40
14521;DHT22;7347;50.844;4.490;2023-04-05T09:25:32;14.90;83.90
14521;DHT22;7347;50.844;4.490;2023-04-05T09:28:00;14.70;84.70
14521;DHT22;7347;50.844;4.490;2023-04-05T09:30:27;14.80;85.00
14521;DHT22;7347;50.844;4.490;2023-04-05T09:32:55;14.60;84.10
14521;DHT22;7347;50.844;4.490;2023-04-05T09:35:22;14.40;87.40
14521;DHT22;7347;50.844;4.490;2023-04-05T09:37:52;14.20;87.70
14521;DHT22;7347;50.844;4.490;2023-04-05T09:40:20;13.30;87.50
14521;DHT22;7347;50.844;4.490;2023-04-05T09:42:47;13.00;88.40
14521;DHT22;7347;50.844;4.490;2023-04-05T09:45:15;12.80;89.70
14521;DHT22;7347;50.844;4.490;2023-04-05T09:47:53;12.60;88.90
14521;DHT22;7347;50.844;4.490;2023-04-05T09:50:20;12.80;89.10
14521;DHT22;7347;50.844;4.490;2023-04-05T09:52:47;12.80;90.80
14521;DHT22;7347;50.844;4.490;2023-04-05T09:55:27;12.60;90.00
14521;DHT22;7347;50.844;4.490;2023-04-05T09:57:54;12.40;90.20
14521;DHT22;7347;50.844;4.490;2023-04-05T10:00:21;12.40;90.10
14521;DHT22;7347;50.844;4.490;2023-04-05T10:02:52;12.10;89.70
14521;DHT22;7347;50.844;4.490;2023-04-05T10:05:22;12.00;89.60
14521;DHT22;7347;50.844;4.490;2023-04-05T10:07:50;11.80;90.30
14521;DHT22;7347;50.844;4.490;2023-04-05T10:10:17;11.70;89.10
14521;DHT22;7347;50.844;4.490;2023-04-05T10:12:46;11.60;89.20
14521;DHT22;7347;50.844;4.490;2023-04-05T10:15:14;11.70;89.10
14521;DHT22;7347;50.844;4.490;2023-04-05T10:17:46;11.60;90.00
14521;DHT22;7347;50.844;4.490;2023-04-05T10:20:18;11.40;90.40
14521;DHT22;7347;50.844;4.490;2023-04-05T10:22:56;11.40;88.40
14521;DHT22;7347;50.844;4.490;2023-04-05T10:25:30;11.40;89.30
14521;DHT22;7347;50.844;4.490;2023-04-05T10:28:03;11.60;88.40
14521;DHT22;7347;50.844;4.490;2023-04-05T10:30:34;11.50;88.00
14521;DHT22;7347;50.844;4.490;2023-04-05T10:33:12;11.30;90.20
14521;DHT22;7347;50.844;4.490;2023-04-05T10:35:51;11.40;90.50
14521;DHT22;7347;50.844;4.490;2023-04-05T10:38:23;11.50;90.10
14521;DHT22;7347;50.844;4.490;2023-04-05T10:40:52;11.60;90.20
14521;DHT22;7347;50.844;4.490;2023-04-05T10:43:24;11.70;89.00
14521;DHT22;7347;50.844;4.490;2023-04-05T10:45:52;11.30;89.20
14521;DHT22;7347;50.844;4.490;2023-04-05T10:48:27;11.50;90.80
14521;DHT22;7347;50.844;4.490;2023-04-05T10:50:58;11.80;91.20
14521;DHT22;7347;50.844;4.490;2023-04-05T10:53:25;12.20;89.30
14521;DHT22;7347;50.844;4.490;2023-04-05T10:55:54;12.50;88.70
14521;DHT22;7347;50.844;4.490;2023-04-05T10:58:24;12.20;89.10
14521;DHT22;7347;50.844;4.490;2023-04-05T11:00:53;11.90;88.80
14521;DHT22;7347;50.844;4.490;2023-04-05T11:03:48;12.00;90.30
14521;DHT22;7347;50.844;4.490;2023-04-05T11:06:20;12.20;89.60
14521;DHT22;7347;50.844;4.490;2023-04-05T11:08:49;12.50;94.30
14521;DHT22;7347;50.844;4.490;2023-04-05T11:11:17;12.60;88.80
14521;DHT22;7347;50.844;4.490;2023-04-05T11:13:50;12.40;90.10
14521;DHT22;7347;50.844;4.490;2023-04-05T11:16:18;12.60;88.90
14521;DHT22;7347;50.844;4.490;2023-04-05T11:18:45;12.70;87.90
14521;DHT22;7347;50.844;4.490;2023-04-05T11:21:20;12.70;88.90
14521;DHT22;7347;50.844;4.490;2023-04-05T11:24:06;12.60;88.60
14521;DHT22;7347;50.844;4.490;2023-04-05T11:26:54;12.80;88.00
14521;DHT22;7347;50.844;4.490;2023-04-05T11:29:48;13.00;88.00
14521;DHT22;7347;50.844;4.490;2023-04-05T11:32:15;12.70;86.50
14521;DHT22;7347;50.844;4.490;2023-04-05T11:34:42;12.50;87.00
14521;DHT22;7347;50.844;4.490;2023-04-05T11:37:09;12.10;87.20
14521;DHT22;7347;50.844;4.490;2023-04-05T11:39:36;12.00;87.90
14521;DHT22;7347;50.844;4.490;2023-04-05T11:42:04;12.00;87.50
14521;DHT22;7347;50.844;4.490;2023-04-05T11:44:42;12.30;89.10
14521;DHT22;7347;50.844;4.490;2023-04-05T11:47:11;12.30;87.70
14521;DHT22;7347;50.844;4.490;2023-04-05T11:49:39;12.10;89.60
14521;DHT22;7347;50.844;4.490;2023-04-05T11:52:11;12.20;88.10
14521;DHT22;7347;50.844;4.490;2023-04-05T11:54:38;12.40;88.70
14521;DHT22;7347;50.844;4.490;2023-04-05T11:57:12;12.60;87.40
14521;DHT22;7347;50.844;4.490;2023-04-05T11:59:39;12.40;87.70
14521;DHT22;7347;50.844;4.490;2023-04-05T12:02:06;12.60;87.20
14521;DHT22;7347;50.844;4.490;2023-04-05T12:04:35;12.70;88.90
14521;DHT22;7347;50.844;4.490;2023-04-05T12:07:15;12.90;88.70
14521;DHT22;7347;50.844;4.490;2023-04-05T12:10:03;13.00;86.60
14521;DHT22;7347;50.844;4.490;2023-04-05T12:12:35;13.10;86.50
14521;DHT22;7347;50.844;4.490;2023-04-05T12:15:04;13.00;85.50
14521;DHT22;7347;50.844;4.490;2023-04-05T12:17:43;12.90;86.10
14521;DHT22;7347;50.844;4.490;2023-04-05T12:20:13;12.70;86.30
14521;DHT22;7347;50.844;4.490;2023-04-05T12:22:42;12.60;87.20
14521;DHT22;7347;50.844;4.490;2023-04-05T12:25:10;12.60;87.00
14521;DHT22;7347;50.844;4.490;2023-04-05T12:27:37;12.80;86.00
14521;DHT22;7347;50.844;4.490;2023-04-05T12:30:06;12.90;85.50
14521;DHT22;7347;50.844;4.490;2023-04-05T12:32:40;13.10;84.60
14521;DHT22;7347;50.844;4.490;2023-04-05T12:35:11;13.20;85.60
14521;DHT22;7347;50.844;4.490;2023-04-05T12:37:39;13.20;85.90
14521;DHT22;7347;50.844;4.490;2023-04-05T12:40:07;12.70;84.40
14521;DHT22;7347;50.844;4.490;2023-04-05T12:42:35;12.50;85.00
14521;DHT22;7347;50.844;4.490;2023-04-05T12:45:04;12.50;84.80
14521;DHT22;7347;50.844;4.490;2023-04-05T12:47:34;12.50;85.40
14521;DHT22;7347;50.844;4.490;2023-04-05T12:50:13;12.70;85.60
14521;DHT22;7347;50.844;4.490;2023-04-05T12:52:54;12.70;85.20
14521;DHT22;7347;50.844;4.490;2023-04-05T12:55:22;12.70;86.40
14521;DHT22;7347;50.844;4.490;2023-04-05T12:57:50;12.90;85.80
14521;DHT22;7347;50.844;4.490;2023-04-05T13:00:18;12.80;86.00
14521;DHT22;7347;50.844;4.490;2023-04-05T13:02:49;13.00;85.60
14521;DHT22;7347;50.844;4.490;2023-04-05T13:05:20;13.20;84.50
14521;DHT22;7347;50.844;4.490;2023-04-05T13:07:46;13.40;84.90
14521;DHT22;7347;50.844;4.490;2023-04-05T13:10:14;13.50;85.00
14521;DHT22;7347;50.844;4.490;2023-04-05T13:12:41;13.40;84.90
14521;DHT22;7347;50.844;4.490;2023-04-05T13:15:08;13.00;85.10
14521;DHT22;7347;50.844;4.490;2023-04-05T13:17:35;13.20;85.20
14521;DHT22;7347;50.844;4.490;2023-04-05T13:20:03;13.40;84.50
14521;DHT22;7347;50.844;4.490;2023-04-05T13:22:31;13.20;86.40
14521;DHT22;7347;50.844;4.490;2023-04-05T13:24:58;13.40;86.30
14521;DHT22;7347;50.844;4.490;2023-04-05T13:27:25;13.50;85.50
14521;DHT22;7347;50.844;4.490;2023-04-05T13:29:52;13.70;85.00
14521;DHT22;7347;50.844;4.490;2023-04-05T13:32:19;13.80;84.00
14521;DHT22;7347;50.844;4.490;2023-04-05T13:34:46;13.90;85.00
14521;DHT22;7347;50.844;4.490;2023-04-05T13:37:13;13.60;84.60
14521;DHT22;7347;50.844;4.490;2023-04-05T13:39:41;13.70;84.50
14521;DHT22;7347;50.844;4.490;2023-04-05T13:42:08;13.80;84.80
14521;DHT22;7347;50.844;4.490;2023-04-05T13:44:35;13.60;85.70
14521;DHT22;7347;50.844;4.490;2023-04-05T13:47:02;13.50;86.50
14521;DHT22;7347;50.844;4.490;2023-04-05T13:49:29;13.50;86.00
14521;DHT22;7347;50.844;4.490;2023-04-05T13:51:56;13.60;86.70
14521;DHT22;7347;50.844;4.490;2023-04-05T13:54:23;13.70;86.50
14521;DHT22;7347;50.844;4.490;2023-04-05T13:56:51;13.90;87.50
14521;DHT22;7347;50.844;4.490;2023-04-05T13:59:18;14.20;83.90
14521;DHT22;7347;50.844;4.490;2023-04-05T14:01:44;13.90;83.70
14521;DHT22;7347;50.844;4.490;2023-04-05T14:04:11;13.80;83.50
14521;DHT22;7347;50.844;4.490;2023-04-05T14:06:38;13.60;85.20
14521;DHT22;7347;50.844;4.490;2023-04-05T14:09:05;13.40;85.00
14521;DHT22;7347;50.844;4.490;2023-04-05T14:11:33;13.30;86.60
14521;DHT22;7347;50.844;4.490;2023-04-05T14:14:01;13.30;85.10
14521;DHT22;7347;50.844;4.490;2023-04-05T14:16:28;13.50;86.90
14521;DHT22;7347;50.844;4.490;2023-04-05T14:18:56;13.70;86.30
14521;DHT22;7347;50.844;4.490;2023-04-05T14:21:23;13.70;84.20
14521;DHT22;7347;50.844;4.490;2023-04-05T14:23:50;13.70;85.00
14521;DHT22;7347;50.844;4.490;2023-04-05T14:26:22;13.80;85.20
14521;DHT22;7347;50.844;4.490;2023-04-05T14:28:49;13.90;85.70
14521;DHT22;7347;50.844;4.490;2023-04-05T14:31:17;13.90;86.60
14521;DHT22;7347;50.844;4.490;2023-04-05T14:33:44;14.10;85.20
14521;DHT22;7347;50.844;4.490;2023-04-05T14:36:11;13.90;84.90
14521;DHT22;7347;50.844;4.490;2023-04-05T14:38:38;13.90;85.30
14521;DHT22;7347;50.844;4.490;2023-04-05T14:41:05;13.90;84.70
14521;DHT22;7347;50.844;4.490;2023-04-05T14:43:33;13.90;85.20
14521;DHT22;7347;50.844;4.490;2023-04-05T14:46:00;13.70;85.20
14521;DHT22;7347;50.844;4.490;2023-04-05T14:48:28;13.80;84.90
14521;DHT22;7347;50.844;4.490;2023-04-05T14:50:56;14.10;83.50
14521;DHT22;7347;50.844;4.490;2023-04-05T14:53:23;14.30;82.70
14521;DHT22;7347;50.844;4.490;2023-04-05T14:55:50;14.40;82.30
14521;DHT22;7347;50.844;4.490;2023-04-05T14:58:17;14.30;84.80
14521;DHT22;7347;50.844;4.490;2023-04-05T15:00:46;14.20;85.20
14521;DHT22;7347;50.844;4.490;2023-04-05T15:03:13;14.30;84.00
14521;DHT22;7347;50.844;4.490;2023-04-05T15:05:42;14.40;83.00
14521;DHT22;7347;50.844;4.490;2023-04-05T15:08:09;14.40;83.50
14521;DHT22;7347;50.844;4.490;2023-04-05T15:10:36;14.40;85.00
14521;DHT22;7347;50.844;4.490;2023-04-05T15:13:04;14.50;85.10
14521;DHT22;7347;50.844;4.490;2023-04-05T15:15:31;14.30;82.00
14521;DHT22;7347;50.844;4.490;2023-04-05T15:17:57;14.40;83.60
14521;DHT22;7347;50.844;4.490;2023-04-05T15:20:25;14.50;84.00
14521;DHT22;7347;50.844;4.490;2023-04-05T15:22:53;14.30;84.30
14521;DHT22;7347;50.844;4.490;2023-04-05T15:25:21;14.30;82.40
14521;DHT22;7347;50.844;4.490;2023-04-05T15:27:48;14.30;82.10
14521;DHT22;7347;50.844;4.490;2023-04-05T15:30:15;14.10;82.30
14521;DHT22;7347;50.844;4.490;2023-04-05T15:32:42;13.90;83.10
14521;DHT22;7347;50.844;4.490;2023-04-05T15:35:09;13.70;83.60
14521;DHT22;7347;50.844;4.490;2023-04-05T15:37:36;13.70;83.70
14521;DHT22;7347;50.844;4.490;2023-04-05T15:40:06;13.60;84.40
14521;DHT22;7347;50.844;4.490;2023-04-05T15:42:33;13.80;84.10
14521;DHT22;7347;50.844;4.490;2023-04-05T15:45:00;14.00;83.10
14521;DHT22;7347;50.844;4.490;2023-04-05T15:47:27;14.10;83.60
14521;DHT22;7347;50.844;4.490;2023-04-05T15:49:54;14.00;84.40
14521;DHT22;7347;50.844;4.490;2023-04-05T15:52:21;13.80;85.30
14521;DHT22;7347;50.844;4.490;2023-04-05T15:54:48;13.80;86.60
14521;DHT22;7347;50.844;4.490;2023-04-05T15:57:16;13.60;85.00
14521;DHT22;7347;50.844;4.490;2023-04-05T15:59:44;13.60;86.40
14521;DHT22;7347;50.844;4.490;2023-04-05T16:02:11;13.70;85.70
14521;DHT22;7347;50.844;4.490;2023-04-05T16:04:38;13.30;84.30
14521;DHT22;7347;50.844;4.490;2023-04-05T16:07:04;13.50;84.50
14521;DHT22;7347;50.844;4.490;2023-04-05T16:09:32;13.80;84.80
14521;DHT22;7347;50.844;4.490;2023-04-05T16:11:59;13.90;82.90
14521;DHT22;7347;50.844;4.490;2023-04-05T16:14:28;13.80;84.00
14521;DHT22;7347;50.844;4.490;2023-04-05T16:16:55;13.30;85.00
14521;DHT22;7347;50.844;4.490;2023-04-05T16:19:22;13.10;86.20
14521;DHT22;7347;50.844;4.490;2023-04-05T16:21:49;12.90;85.40
14521;DHT22;7347;50.844;4.490;2023-04-05T16:24:17;12.70;85.80
14521;DHT22;7347;50.844;4.490;2023-04-05T16:26:44;12.60;86.90
14521;DHT22;7347;50.844;4.490;2023-04-05T16:29:11;12.60;86.90
14521;DHT22;7347;50.844;4.490;2023-04-05T16:31:39;12.90;86.70
14521;DHT22;7347;50.844;4.490;2023-04-05T16:34:11;12.90;86.50
14521;DHT22;7347;50.844;4.490;2023-04-05T16:36:38;12.90;86.90
14521;DHT22;7347;50.844;4.490;2023-04-05T16:39:05;13.20;84.80
14521;DHT22;7347;50.844;4.490;2023-04-05T16:41:34;13.40;85.90
14521;DHT22;7347;50.844;4.490;2023-04-05T16:44:01;13.60;85.60
14521;DHT22;7347;50.844;4.490;2023-04-05T16:46:28;13.40;85.00
14521;DHT22;7347;50.844;4.490;2023-04-05T16:48:58;13.40;85.00
14521;DHT22;7347;50.844;4.490;2023-04-05T16:51:25;13.20;85.20
14521;DHT22;7347;50.844;4.490;2023-04-05T16:53:52;13.10;86.20
14521;DHT22;7347;50.844;4.490;2023-04-05T16:56:19;12.90;87.40
14521;DHT22;7347;50.844;4.490;2023-04-05T16:58:46;12.80;87.00
14521;DHT22;7347;50.844;4.490;2023-04-05T17:01:13;12.70;86.80
14521;DHT22;7347;50.844;4.490;2023-04-05T17:03:40;12.70;86.90
14521;DHT22;7347;50.844;4.490;2023-04-05T17:06:12;12.50;87.00
14521;DHT22;7347;50.844;4.490;2023-04-05T17:08:39;12.20;87.10
14521;DHT22;7347;50.844;4.490;2023-04-05T17:11:06;12.10;87.10
14521;DHT22;7347;50.844;4.490;2023-04-05T17:13:33;12.20;87.20
14521;DHT22;7347;50.844;4.490;2023-04-05T17:16:00;12.20;87.00
14521;DHT22;7347;50.844;4.490;2023-04-05T17:18:27;12.20;86.80
14521;DHT22;7347;50.844;4.490;2023-04-05T17:20:54;12.10;87.70
14521;DHT22;7347;50.844;4.490;2023-04-05T17:23:23;12.10;87.70
14521;DHT22;7347;50.844;4.490;2023-04-05T17:25:50;11.90;87.80
14521;DHT22;7347;50.844;4.490;2023-04-05T17:28:17;11.80;88.50
14521;DHT22;7347;50.844;4.490;2023-04-05T17:30:44;12.00;88.60
14521;DHT22;7347;50.844;4.490;2023-04-05T17:33:11;12.20;88.00
14521;DHT22;7347;50.844;4.490;2023-04-05T17:35:38;12.40;87.30
14521;DHT22;7347;50.844;4.490;2023-04-05T17:38:05;12.30;86.60
14521;DHT22;7347;50.844;4.490;2023-04-05T17:40:33;12.10;86.90
14521;DHT22;7347;50.844;4.490;2023-04-05T17:43:00;11.90;87.50
14521;DHT22;7347;50.844;4.490;2023-04-05T17:45:27;11.80;88.50
14521;DHT22;7347;50.844;4.490;2023-04-05T17:47:54;11.80;89.30
14521;DHT22;7347;50.844;4.490;2023-04-05T17:50:21;12.00;89.50
14521;DHT22;7347;50.844;4.490;2023-04-05T17:52:48;12.10;89.70
14521;DHT22;7347;50.844;4.490;2023-04-05T17:55:15;12.00;89.50
14521;DHT22;7347;50.844;4.490;2023-04-05T17:57:43;11.90;90.20
14521;DHT22;7347;50.844;4.490;2023-04-05T18:00:11;11.80;90.80
14521;DHT22;7347;50.844;4.490;2023-04-05T18:02:38;11.60;90.60
14521;DHT22;7347;50.844;4.490;2023-04-05T18:05:06;11.50;90.10
14521;DHT22;7347;50.844;4.490;2023-04-05T18:07:34;11.40;92.30
14521;DHT22;7347;50.844;4.490;2023-04-05T18:10:02;11.30;92.80
14521;DHT22;7347;50.844;4.490;2023-04-05T18:12:29;11.10;94.30
14521;DHT22;7347;50.844;4.490;2023-04-05T18:14:57;11.00;93.70
14521;DHT22;7347;50.844;4.490;2023-04-05T18:17:24;10.90;95.30
14521;DHT22;7347;50.844;4.490;2023-04-05T18:19:52;10.80;96.40
14521;DHT22;7347;50.844;4.490;2023-04-05T18:22:19;10.60;96.60
14521;DHT22;7347;50.844;4.490;2023-04-05T18:24:46;10.50;97.00
14521;DHT22;7347;50.844;4.490;2023-04-05T18:27:13;10.30;97.40
14521;DHT22;7347;50.844;4.490;2023-04-05T18:29:40;10.10;97.40
14521;DHT22;7347;50.844;4.490;2023-04-05T18:32:08;10.00;98.90
14521;DHT22;7347;50.844;4.490;2023-04-05T18:34:35;9.90;99.90
14521;DHT22;7347;50.844;4.490;2023-04-05T18:37:02;9.80;99.40
14521;DHT22;7347;50.844;4.490;2023-04-05T18:39:29;9.70;98.90
14521;DHT22;7347;50.844;4.490;2023-04-05T18:41:56;9.60;98.80
14521;DHT22;7347;50.844;4.490;2023-04-05T18:44:23;9.40;99.30
14521;DHT22;7347;50.844;4.490;2023-04-05T18:46:50;9.20;99.40
14521;DHT22;7347;50.844;4.490;2023-04-05T18:49:19;9.10;99.40
14521;DHT22;7347;50.844;4.490;2023-04-05T18:51:46;9.00;99.70
14521;DHT22;7347;50.844;4.490;2023-04-05T18:54:13;8.90;99.90
14521;DHT22;7347;50.844;4.490;2023-04-05T18:56:42;8.70;99.90
14521;DHT22;7347;50.844;4.490;2023-04-05T18:59:10;8.60;99.90
14521;DHT22;7347;50.844;4.490;2023-04-05T19:01:37;8.60;99.90
14521;DHT22;7347;50.844;4.490;2023-04-05T19:04:03;8.50;99.90
14521;DHT22;7347;50.844;4.490;2023-04-05T19:06:32;8.40;99.90
14521;DHT22;7347;50.844;4.490;2023-04-05T19:08:59;8.30;99.90
14521;DHT22;7347;50.844;4.490;2023-04-05T19:11:26;8.20;99.90
14521;DHT22;7347;50.844;4.490;2023-04-05T19:13:53;8.20;99.90
14521;DHT22;7347;50.844;4.490;2023-04-05T19:16:20;8.10;99.90
14521;DHT22;7347;50.844;4.490;2023-04-05T19:18:47;7.90;99.90
14521;DHT22;7347;50.844;4.490;2023-04-05T19:21:13;7.90;99.90
14521;DHT22;7347;50.844;4.490;2023-04-05T19:23:42;7.70;99.90
14521;DHT22;7347;50.844;4.490;2023-04-05T19:26:09;7.70;99.90
14521;DHT22;7347;50.844;4.490;2023-04-05T19:28:36;7.70;99.90
14521;DHT22;7347;50.844;4.490;2023-04-05T19:31:03;7.70;99.90
14521;DHT22;7347;50.844;4.490;2023-04-05T19:33:30;7.80;99.90
14521;DHT22;7347;50.844;4.490;2023-04-05T19:35:58;7.70;99.90
14521;DHT22;7347;50.844;4.490;2023-04-05T19:38:25;7.60;99.90
14521;DHT22;7347;50.844;4.490;2023-04-05T19:40:53;7.40;99.90
14521;DHT22;7347;50.844;4.490;2023-04-05T19:43:21;7.30;99.90
14521;DHT22;7347;50.844;4.490;2023-04-05T19:45:51;7.30;99.90
14521;DHT22;7347;50.844;4.490;2023-04-05T19:48:36;7.20;99.90
14521;DHT22;7347;50.844;4.490;2023-04-05T19:51:04;7.20;99.90
14521;DHT22;7347;50.844;4.490;2023-04-05T19:53:40;7.10;99.90
14521;DHT22;7347;50.844;4.490;2023-04-05T19:56:11;7.10;99.90
14521;DHT22;7347;50.844;4.490;2023-04-05T19:58:38;7.00;99.90
14521;DHT22;7347;50.844;4.490;2023-04-05T20:01:06;6.90;99.90
14521;DHT22;7347;50.844;4.490;2023-04-05T20:03:34;6.90;99.90
14521;DHT22;7347;50.844;4.490;2023-04-05T20:06:09;6.80;99.90
14521;DHT22;7347;50.844;4.490;2023-04-05T20:08:37;6.70;99.90
14521;DHT22;7347;50.844;4.490;2023-04-05T20:11:07;6.70;99.90
14521;DHT22;7347;50.844;4.490;2023-04-05T20:13:41;6.70;99.90
14521;DHT22;7347;50.844;4.490;2023-04-05T20:16:12;6.70;99.90
14521;DHT22;7347;50.844;4.490;2023-04-05T20:18:43;6.70;99.90
14521;DHT22;7347;50.844;4.490;2023-04-05T20:21:11;6.70;99.90
14521;DHT22;7347;50.844;4.490;2023-04-05T20:23:40;6.70;99.90
14521;DHT22;7347;50.844;4.490;2023-04-05T20:26:11;6.60;99.90
14521;DHT22;7347;50.844;4.490;2023-04-05T20:28:40;6.70;99.90
14521;DHT22;7347;50.844;4.490;2023-04-05T20:31:09;6.60;99.90
14521;DHT22;7347;50.844;4.490;2023-04-05T20:33:47;6.60;99.90
14521;DHT22;7347;50.844;4.490;2023-04-05T20:36:17;6.50;99.90
14521;DHT22;7347;50.844;4.490;2023-04-05T20:38:46;6.40;99.90
14521;DHT22;7347;50.844;4.490;2023-04-05T20:41:14;6.30;99.90
14521;DHT22;7347;50.844;4.490;2023-04-05T20:43:43;6.20;99.90
14521;DHT22;7347;50.844;4.490;2023-04-05T20:46:10;6.20;99.90
14521;DHT22;7347;50.844;4.490;2023-04-05T20:48:38;6.20;99.90
14521;DHT22;7347;50.844;4.490;2023-04-05T20:51:06;6.20;99.90
14521;DHT22;7347;50.844;4.490;2023-04-05T20:53:34;6.20;99.90
14521;DHT22;7347;50.844;4.490;2023-04-05T20:56:03;6.20;99.90
14521;DHT22;7347;50.844;4.490;2023-04-05T20:58:31;6.10;99.90
14521;DHT22;7347;50.844;4.490;2023-04-05T21:00:59;6.10;99.90
14521;DHT22;7347;50.844;4.490;2023-04-05T21:03:28;6.20;99.90
14521;DHT22;7347;50.844;4.490;2023-04-05T21:05:56;6.20;99.90
14521;DHT22;7347;50.844;4.490;2023-04-05T21:08:23;6.20;99.90
14521;DHT22;7347;50.844;4.490;2023-04-05T21:10:50;6.20;99.90
14521;DHT22;7347;50.844;4.490;2023-04-05T21:13:18;6.20;99.90
14521;DHT22;7347;50.844;4.490;2023-04-05T21:15:45;6.10;99.90
14521;DHT22;7347;50.844;4.490;2023-04-05T21:18:13;6.20;99.90
14521;DHT22;7347;50.844;4.490;2023-04-05T21:20:40;6.20;99.90
14521;DHT22;7347;50.844;4.490;2023-04-05T21:23:15;6.20;99.90
14521;DHT22;7347;50.844;4.490;2023-04-05T21:25:42;6.10;99.90
14521;DHT22;7347;50.844;4.490;2023-04-05T21:28:09;6.10;99.90
14521;DHT22;7347;50.844;4.490;2023-04-05T21:30:36;6.00;99.90
